Time;durP1;ratioP1;P1;durP2;ratioP2;P2;SDS_P1;SDS_P2;PMS_P1;PMS_P2;Temp;Humidity;BMP_temperature;BMP_pressure;BME280_temperature;BME280_humidity;BME280_pressure;Samples;Min_cycle;Max_cycle;Signal;HPM_P1;HPM_P2
2022/07/27 00:01:37;;;;;;;4.47;1.40;;;;;;;17.63;53.84;101936.25;6245245;23;20000;-73
2022/07/27 00:04:02;;;;;;;4.28;1.40;;;;;;;17.64;54.47;101934.28;6243646;23;20412;-73
2022/07/27 00:06:28;;;;;;;5.18;1.52;;;;;;;17.61;54.22;101932.03;6245463;23;20008;-73
2022/07/27 00:08:53;;;;;;;3.53;1.30;;;;;;;17.57;54.56;101925.28;6245217;23;20011;-73
2022/07/27 00:11:18;;;;;;;6.60;1.58;;;;;;;17.53;54.48;101929.75;6245098;23;20075;-73
2022/07/27 00:13:44;;;;;;;6.13;1.60;;;;;;;17.50;54.57;101931.16;6244651;23;20008;-73
2022/07/27 00:16:10;;;;;;;4.97;1.60;;;;;;;17.50;54.64;101924.69;6245548;23;20008;-73
2022/07/27 00:18:35;;;;;;;3.85;1.65;;;;;;;17.49;55.00;101925.78;6244528;23;20090;-72
2022/07/27 00:21:01;;;;;;;5.65;1.45;;;;;;;17.52;55.15;101922.44;6245880;23;20011;-73
2022/07/27 00:23:26;;;;;;;4.45;1.60;;;;;;;17.38;55.22;101928.56;6244290;23;20023;-73
2022/07/27 00:25:52;;;;;;;5.25;1.95;;;;;;;17.41;55.26;101922.41;6242107;23;20020;-73
2022/07/27 00:28:17;;;;;;;3.60;1.38;;;;;;;17.39;55.21;101930.25;6245044;23;20004;-73
2022/07/27 00:30:42;;;;;;;4.40;1.80;;;;;;;17.38;55.29;101925.75;6245642;23;20026;-73
2022/07/27 00:33:17;;;;;;;2.58;1.45;;;;;;;17.36;55.41;101925.16;6244628;23;20017;-72
2022/07/27 00:35:42;;;;;;;6.97;1.98;;;;;;;17.29;55.64;101921.78;6245077;23;20003;-73
2022/07/27 00:38:07;;;;;;;8.13;2.25;;;;;;;17.26;55.86;101925.13;6243792;23;20731;-74
2022/07/27 00:40:33;;;;;;;6.95;1.88;;;;;;;17.26;55.98;101921.47;6243281;23;20024;-73
2022/07/27 00:42:58;;;;;;;5.30;2.30;;;;;;;17.21;56.24;101922.28;6245399;23;20086;-73
2022/07/27 00:45:23;;;;;;;6.82;2.38;;;;;;;17.18;56.24;101922.84;6244313;23;20000;-73
2022/07/27 00:47:48;;;;;;;9.57;2.50;;;;;;;17.14;56.22;101924.50;6244494;23;20031;-73
2022/07/27 00:50:14;;;;;;;6.85;2.38;;;;;;;17.15;56.33;101923.38;6245057;23;20014;-73
2022/07/27 00:52:40;;;;;;;5.18;2.30;;;;;;;17.11;56.66;101920.28;6243502;23;20004;-74
2022/07/27 00:55:05;;;;;;;9.25;2.40;;;;;;;17.06;56.75;101927.81;6244416;23;20023;-74
2022/07/27 00:57:31;;;;;;;8.82;2.30;;;;;;;17.02;56.58;101923.88;6243719;23;20288;-73
2022/07/27 00:59:56;;;;;;;6.13;2.17;;;;;;;17.06;56.66;101922.22;6243076;23;20436;-73
2022/07/27 01:02:21;;;;;;;5.20;2.47;;;;;;;16.97;56.91;101912.59;6243262;23;20008;-73
2022/07/27 01:04:47;;;;;;;6.78;2.17;;;;;;;16.98;56.83;101919.88;6245283;23;20026;-74
2022/07/27 01:07:12;;;;;;;7.65;1.95;;;;;;;16.92;57.01;101919.84;6242571;23;20027;-74
2022/07/27 01:09:56;;;;;;;3.25;2.00;;;;;;;16.83;57.12;101926.25;6244775;23;20011;-73
2022/07/27 01:12:23;;;;;;;6.05;2.50;;;;;;;16.85;56.88;101930.47;6244519;23;20475;-73
2022/07/27 01:14:50;;;;;;;7.35;2.40;;;;;;;16.80;57.10;101916.41;6244247;23;20079;-73
2022/07/27 01:17:16;;;;;;;4.18;2.10;;;;;;;16.81;57.32;101918.09;6244415;23;20059;-73
2022/07/27 01:19:42;;;;;;;4.47;2.08;;;;;;;16.74;57.48;101922.25;6244195;23;20325;-73
2022/07/27 01:22:08;;;;;;;8.15;2.38;;;;;;;16.69;57.40;101920.22;6242624;23;20011;-74
2022/07/27 01:24:34;;;;;;;4.13;2.40;;;;;;;16.63;57.37;101915.69;6244267;23;20012;-74
2022/07/27 01:27:01;;;;;;;6.38;2.30;;;;;;;16.58;57.39;101918.44;6244328;23;20023;-74
2022/07/27 01:29:28;;;;;;;9.13;2.20;;;;;;;16.54;57.46;101925.69;6244295;23;20036;-74
2022/07/27 01:31:53;;;;;;;5.55;2.47;;;;;;;16.58;57.50;101924.03;6245341;23;20008;-73
2022/07/27 01:34:19;;;;;;;4.45;2.30;;;;;;;16.57;57.70;101925.16;6246283;23;20416;-74
2022/07/27 01:36:47;;;;;;;9.80;2.45;;;;;;;16.56;57.77;101929.09;6245504;23;20004;-73
2022/07/27 01:39:13;;;;;;;5.70;2.63;;;;;;;16.45;57.69;101923.38;6247118;23;20019;-73
2022/07/27 01:41:38;;;;;;;6.53;2.58;;;;;;;16.42;57.80;101921.09;6246157;23;20446;-74
2022/07/27 01:44:04;;;;;;;5.75;2.28;;;;;;;16.47;57.60;101916.69;6246904;23;20004;-74
2022/07/27 01:46:29;;;;;;;8.38;2.50;;;;;;;16.37;57.91;101915.47;6246235;23;20011;-73
2022/07/27 01:48:55;;;;;;;9.30;2.35;;;;;;;16.35;57.99;101920.50;6245975;23;20035;-73
2022/07/27 01:51:20;;;;;;;5.82;2.50;;;;;;;16.36;57.89;101916.59;6244895;23;20039;-73
2022/07/27 01:53:45;;;;;;;5.63;2.45;;;;;;;16.37;58.02;101909.00;6245934;23;20031;-73
2022/07/27 01:56:11;;;;;;;4.60;2.40;;;;;;;16.33;58.12;101911.50;6243184;23;20007;-74
2022/07/27 01:58:40;;;;;;;5.45;2.20;;;;;;;16.28;58.25;101910.63;6245368;23;20482;-74
2022/07/27 02:01:05;;;;;;;5.10;2.25;;;;;;;16.25;58.46;101914.78;6244277;23;20007;-74
2022/07/27 02:03:31;;;;;;;4.90;2.10;;;;;;;16.21;58.11;101913.63;6244516;23;20008;-73
2022/07/27 02:05:57;;;;;;;8.15;2.20;;;;;;;16.16;58.25;101916.38;6246333;23;20007;-74
2022/07/27 02:08:22;;;;;;;7.40;2.50;;;;;;;16.15;57.97;101909.06;6245757;23;20319;-74
2022/07/27 02:13:33;;;;;;;7.63;2.88;;;;;;;16.15;57.95;101907.16;6245993;23;20387;-73
2022/07/27 02:15:58;;;;;;;8.15;2.72;;;;;;;16.15;57.76;101904.34;6246234;23;20085;-74
2022/07/27 02:18:23;;;;;;;7.18;2.75;;;;;;;16.13;57.70;101911.31;6244237;23;20000;-73
2022/07/27 02:20:49;;;;;;;4.82;2.75;;;;;;;16.09;58.07;101905.38;6246768;23;20000;-73
2022/07/27 02:23:14;;;;;;;4.65;2.55;;;;;;;16.07;58.10;101909.56;6246903;23;20000;-74
2022/07/27 02:25:39;;;;;;;5.90;2.53;;;;;;;16.02;58.38;101898.31;6245236;23;20322;-74
2022/07/27 02:28:05;;;;;;;7.28;2.63;;;;;;;16.00;58.53;101901.38;6245084;23;20431;-74
2022/07/27 02:30:31;;;;;;;3.92;2.60;;;;;;;16.00;58.56;101900.53;6244125;23;20000;-74
2022/07/27 02:32:56;;;;;;;3.85;2.50;;;;;;;15.95;58.67;101899.38;6245911;23;20011;-74
2022/07/27 02:35:21;;;;;;;7.18;2.58;;;;;;;15.95;58.20;101895.72;6218397;23;20004;-74
2022/07/27 02:37:47;;;;;;;4.28;2.28;;;;;;;15.90;58.08;101904.06;6244604;23;20058;-74
2022/07/27 02:40:15;;;;;;;6.43;2.53;;;;;;;15.83;58.24;101895.88;6245515;22;20004;-74
2022/07/27 02:42:41;;;;;;;7.72;2.90;;;;;;;15.84;58.46;101899.53;6246387;22;20000;-74
2022/07/27 02:45:07;;;;;;;3.63;2.53;;;;;;;15.81;58.55;101892.50;6244378;22;20007;-74
2022/07/27 02:47:32;;;;;;;6.40;2.67;;;;;;;15.77;58.76;101890.50;6245045;23;20424;-74
2022/07/27 02:49:57;;;;;;;7.82;3.00;;;;;;;15.76;58.62;101895.25;6245884;22;20074;-74
2022/07/27 02:52:23;;;;;;;7.30;2.72;;;;;;;15.74;58.66;101903.03;6245416;23;20074;-74
2022/07/27 02:54:48;;;;;;;9.73;2.88;;;;;;;15.75;58.87;101898.28;6246323;23;20605;-73
2022/07/27 02:57:13;;;;;;;8.05;2.72;;;;;;;15.75;58.79;101893.53;6244906;23;20000;-74
2022/07/27 02:59:38;;;;;;;4.32;2.63;;;;;;;15.73;58.70;101901.38;6245501;23;20003;-74
2022/07/27 03:02:04;;;;;;;9.02;2.85;;;;;;;15.72;58.56;101894.09;6243869;23;20012;-73
2022/07/27 03:04:29;;;;;;;11.43;3.15;;;;;;;15.73;58.90;101895.75;6245929;23;20004;-73
2022/07/27 03:06:54;;;;;;;5.75;2.92;;;;;;;15.70;58.54;101899.09;6243601;22;20015;-74
2022/07/27 03:09:20;;;;;;;8.70;2.67;;;;;;;15.68;58.64;101904.13;6245878;23;20012;-74
2022/07/27 03:11:45;;;;;;;7.20;2.70;;;;;;;15.64;59.24;101906.56;6246131;23;20015;-74
2022/07/27 03:14:10;;;;;;;6.78;2.67;;;;;;;15.63;58.74;101904.84;6244937;23;20035;-74
2022/07/27 03:16:35;;;;;;;9.50;3.00;;;;;;;15.66;58.88;101898.75;6245864;23;20004;-74
2022/07/27 03:19:01;;;;;;;6.50;2.90;;;;;;;15.63;58.83;101902.03;6245327;23;20373;-74
2022/07/27 03:21:27;;;;;;;8.25;3.00;;;;;;;15.61;59.03;101906.22;6244881;23;20071;-74
2022/07/27 03:23:52;;;;;;;5.75;2.95;;;;;;;15.55;59.37;101899.72;6245505;23;20340;-73
2022/07/27 03:26:18;;;;;;;5.32;3.05;;;;;;;15.61;59.10;101906.22;6244961;23;20020;-74
2022/07/27 03:28:43;;;;;;;7.80;3.05;;;;;;;15.54;59.22;101898.03;6244421;23;20000;-74
2022/07/27 03:31:09;;;;;;;7.85;3.10;;;;;;;15.53;59.03;101901.94;6245327;23;20474;-73
2022/07/27 03:33:35;;;;;;;4.32;2.60;;;;;;;15.49;58.96;101902.72;6245904;23;20008;-74
2022/07/27 03:36:00;;;;;;;7.05;2.85;;;;;;;15.49;59.24;101908.31;6245064;23;20075;-73
2022/07/27 03:38:26;;;;;;;5.55;3.28;;;;;;;15.44;59.29;101901.56;6245849;23;20015;-74
2022/07/27 03:40:51;;;;;;;6.75;3.30;;;;;;;15.40;59.04;101902.31;6245426;23;20082;-73
2022/07/27 03:43:16;;;;;;;4.97;2.97;;;;;;;15.41;59.04;101898.44;6245484;23;20005;-74
2022/07/27 03:45:41;;;;;;;6.68;2.80;;;;;;;15.40;59.14;101903.16;6245503;23;20004;-73
2022/07/27 03:48:07;;;;;;;5.68;2.80;;;;;;;15.36;59.22;101910.38;6243807;23;20011;-73
2022/07/27 03:50:32;;;;;;;5.78;3.13;;;;;;;15.33;59.56;101905.31;6245400;23;20004;-73
2022/07/27 03:52:57;;;;;;;4.22;2.60;;;;;;;15.35;59.96;101905.88;6245863;23;20446;-73
2022/07/27 03:55:23;;;;;;;6.47;3.05;;;;;;;15.36;59.87;101903.94;6244596;23;20008;-73
2022/07/27 03:57:49;;;;;;;7.18;2.72;;;;;;;15.35;60.22;101910.66;6244316;23;20050;-74
2022/07/27 04:00:15;;;;;;;3.55;2.80;;;;;;;15.34;60.26;101914.56;6245427;23;20004;-74
2022/07/27 04:02:41;;;;;;;6.65;2.70;;;;;;;15.36;60.24;101907.56;6244655;22;20456;-74
2022/07/27 04:05:07;;;;;;;6.70;2.75;;;;;;;15.39;60.59;101907.06;6242263;22;20066;-73
2022/07/27 04:07:32;;;;;;;6.38;3.30;;;;;;;15.36;60.62;101907.56;6244038;22;20007;-73
2022/07/27 04:09:57;;;;;;;6.75;2.92;;;;;;;15.42;60.66;101914.09;6243843;22;20096;-74
2022/07/27 04:12:23;;;;;;;9.77;2.90;;;;;;;15.41;60.83;101909.63;6246082;22;20062;-73
2022/07/27 04:14:48;;;;;;;4.47;2.90;;;;;;;15.49;60.79;101911.97;6245250;23;20012;-73
2022/07/27 04:17:14;;;;;;;7.93;2.72;;;;;;;15.46;61.34;101910.50;6243430;23;20306;-73
2022/07/27 04:19:39;;;;;;;7.07;2.65;;;;;;;15.48;61.32;101904.66;6244730;23;20004;-73
2022/07/27 04:22:04;;;;;;;9.07;2.92;;;;;;;15.49;61.21;101911.13;6244094;23;20039;-74
2022/07/27 04:24:29;;;;;;;7.35;3.15;;;;;;;15.43;61.51;101904.59;6243818;23;20004;-73
2022/07/27 04:26:55;;;;;;;6.72;3.10;;;;;;;15.45;61.75;101902.41;6245525;23;20008;-74
2022/07/27 04:29:20;;;;;;;5.35;3.50;;;;;;;15.41;61.57;101907.66;6245370;23;20004;-73
2022/07/27 04:31:45;;;;;;;5.22;2.88;;;;;;;15.45;61.55;101906.03;6243604;23;20079;-73
2022/07/27 04:34:11;;;;;;;6.07;2.75;;;;;;;15.51;61.50;101914.47;6245732;23;20008;-73
2022/07/27 04:36:37;;;;;;;7.22;3.15;;;;;;;15.51;61.41;101915.31;6243676;23;20104;-74
2022/07/27 04:39:03;;;;;;;6.18;3.17;;;;;;;15.52;61.53;101917.00;6244749;23;20004;-73
2022/07/27 04:41:28;;;;;;;4.40;2.85;;;;;;;15.52;61.63;101918.97;6243483;23;20008;-74
2022/07/27 04:43:54;;;;;;;8.25;3.03;;;;;;;15.56;61.82;101917.34;6244118;23;20016;-74
2022/07/27 04:46:19;;;;;;;5.93;3.15;;;;;;;15.54;61.89;101913.97;6242191;23;20004;-74
2022/07/27 04:48:44;;;;;;;7.88;3.10;;;;;;;15.59;61.73;101923.25;6245332;23;20028;-74
2022/07/27 04:51:14;;;;;;;7.32;3.08;;;;;;;15.55;61.60;101921.25;6241827;23;20015;-74
2022/07/27 04:53:40;;;;;;;7.07;3.20;;;;;;;15.56;61.80;101922.94;6242811;23;20010;-74
2022/07/27 04:56:05;;;;;;;4.97;2.95;;;;;;;15.60;61.91;101924.09;6242657;23;20083;-75
2022/07/27 04:58:31;;;;;;;10.23;3.50;;;;;;;15.59;61.86;101928.00;6243674;23;20466;-75
2022/07/27 05:00:56;;;;;;;10.73;3.25;;;;;;;15.59;61.84;101939.22;6242872;23;20011;-75
2022/07/27 05:03:21;;;;;;;7.80;3.47;;;;;;;15.60;61.57;101935.28;6243672;23;20004;-75
2022/07/27 05:05:47;;;;;;;9.70;3.33;;;;;;;15.61;61.84;101934.22;6242787;23;20016;-75
2022/07/27 05:08:12;;;;;;;8.10;3.55;;;;;;;15.57;61.93;101938.63;6245854;23;20020;-74
2022/07/27 05:10:37;;;;;;;11.50;3.70;;;;;;;15.62;61.78;101933.94;6249170;23;20007;-74
2022/07/27 05:13:02;;;;;;;10.73;3.70;;;;;;;15.63;61.68;101941.22;6246810;23;20336;-74
2022/07/27 05:15:28;;;;;;;12.80;3.78;;;;;;;15.61;61.96;101937.84;6247706;23;20015;-73
2022/07/27 05:17:53;;;;;;;6.72;3.38;;;;;;;15.58;62.08;101931.94;6251210;23;20004;-75
2022/07/27 05:20:19;;;;;;;7.03;3.50;;;;;;;15.56;62.19;101940.59;6245766;23;20004;-74
2022/07/27 05:22:44;;;;;;;5.70;3.28;;;;;;;15.63;62.06;101945.97;6246569;23;20439;-74
2022/07/27 05:25:09;;;;;;;6.15;3.30;;;;;;;15.62;62.09;101959.13;6247105;23;20119;-74
2022/07/27 05:27:36;;;;;;;9.75;3.75;;;;;;;15.63;62.33;101951.56;6247626;23;20031;-74
2022/07/27 05:30:03;;;;;;;11.40;3.60;;;;;;;15.66;62.15;101965.94;6245982;23;20031;-74
2022/07/27 05:32:28;;;;;;;9.15;3.72;;;;;;;15.70;62.11;101963.47;6245865;23;20012;-74
2022/07/27 05:34:54;;;;;;;7.80;3.67;;;;;;;15.72;62.12;101964.06;6246239;23;20012;-74
2022/07/27 05:37:19;;;;;;;8.90;3.30;;;;;;;15.76;62.04;101962.44;6246371;23;20324;-74
2022/07/27 05:39:44;;;;;;;5.15;2.90;;;;;;;15.79;61.97;101959.09;6245982;23;20028;-73
2022/07/27 05:42:10;;;;;;;8.98;3.47;;;;;;;15.76;62.30;101956.84;6246783;23;20000;-74
2022/07/27 05:44:35;;;;;;;10.25;3.50;;;;;;;15.87;62.19;101950.22;6246890;23;20381;-74
2022/07/27 05:47:00;;;;;;;10.60;3.40;;;;;;;15.90;62.08;101952.50;6246191;23;20068;-73
2022/07/27 05:49:26;;;;;;;5.72;3.10;;;;;;;15.94;62.10;101964.03;6246097;23;20054;-73
2022/07/27 05:51:51;;;;;;;8.05;3.75;;;;;;;16.03;61.88;101958.81;6246076;23;20008;-74
2022/07/27 05:54:17;;;;;;;6.90;3.65;;;;;;;16.02;61.96;101968.31;6246809;23;20003;-75
2022/07/27 05:56:43;;;;;;;9.68;3.78;;;;;;;16.04;62.06;101969.75;6246410;23;20011;-74
2022/07/27 05:59:09;;;;;;;5.55;3.45;;;;;;;16.11;62.12;101963.94;6246470;23;20004;-74
2022/07/27 06:01:35;;;;;;;6.13;3.63;;;;;;;16.26;61.73;101966.91;6243565;23;20027;-74
2022/07/27 06:04:00;;;;;;;9.57;3.90;;;;;;;16.33;61.65;101966.69;6244008;23;20007;-73
2022/07/27 06:09:10;;;;;;;6.80;3.13;;;;;;;16.50;61.09;101963.78;6243979;23;20019;-74
2022/07/27 06:11:35;;;;;;;7.15;3.30;;;;;;;16.59;61.30;101968.63;6243306;23;20004;-73
2022/07/27 06:14:01;;;;;;;7.35;2.97;;;;;;;16.72;60.92;101974.91;6245650;23;20376;-73
2022/07/27 06:16:26;;;;;;;8.70;2.70;;;;;;;16.79;60.34;101970.81;6244837;23;20079;-72
2022/07/27 06:18:51;;;;;;;4.57;1.88;;;;;;;17.24;63.19;101974.22;6244211;23;20110;-69
2022/07/27 06:21:17;;;;;;;4.78;1.75;;;;;;;17.41;61.98;101972.94;6245815;23;20026;-74
2022/07/27 06:23:42;;;;;;;5.72;1.50;;;;;;;17.71;61.64;101971.38;6243431;23;19996;-70
2022/07/27 06:26:08;;;;;;;3.42;1.17;;;;;;;17.90;60.29;101968.97;6243308;23;20012;-72
2022/07/27 06:28:33;;;;;;;2.83;1.45;;;;;;;18.02;59.47;101966.75;6242736;23;20008;-73
2022/07/27 06:30:59;;;;;;;7.82;1.60;;;;;;;18.26;58.94;101969.06;6243378;23;20003;-71
2022/07/27 06:33:27;;;;;;;2.03;1.25;;;;;;;18.37;57.77;101968.81;6244845;23;20004;-71
2022/07/27 06:35:54;;;;;;;2.20;1.42;;;;;;;18.59;57.88;101967.72;6245252;23;20058;-72
2022/07/27 06:38:20;;;;;;;4.28;1.60;;;;;;;18.62;56.02;101976.41;6241500;23;20015;-72
2022/07/27 06:40:51;;;;;;;5.43;1.45;;;;;;;18.85;56.53;101975.06;6242307;23;20011;-72
2022/07/27 06:43:17;;;;;;;3.22;1.10;;;;;;;19.00;55.78;101973.38;6244992;23;20074;-72
2022/07/27 06:45:42;;;;;;;3.22;1.13;;;;;;;19.13;54.93;101972.78;6244163;23;20429;-73
2022/07/27 06:48:07;;;;;;;4.93;1.30;;;;;;;19.12;55.04;101974.75;6244106;23;20059;-72
2022/07/27 06:50:32;;;;;;;2.75;1.13;;;;;;;19.34;55.34;101982.06;6243191;23;20057;-72
2022/07/27 06:52:58;;;;;;;3.10;1.40;;;;;;;19.42;54.30;101966.56;6243969;23;20050;-74
2022/07/27 06:55:23;;;;;;;4.95;1.58;;;;;;;19.35;53.54;101978.09;6242686;23;20048;-73
2022/07/27 06:57:48;;;;;;;3.45;1.20;;;;;;;19.53;53.47;101971.00;6241913;22;20382;-73
2022/07/27 07:00:14;;;;;;;3.45;1.20;;;;;;;19.61;53.21;101971.31;6243054;22;20007;-69
2022/07/27 07:07:11;;;;;;;;;;;;;;;;;;;;;
2022/07/27 07:10:46;;;;;;;;;;;;;;;;;;;;;
2022/07/27 07:16:50;;;;;;;2.58;1.00;;;;;;;19.90;51.65;101989.50;6065436;23;20024;-72
2022/07/27 07:29:54;;;;;;;2.00;0.90;;;;;;;20.08;51.13;101980.38;6060678;23;20578;-74
2022/07/27 07:33:02;;;;;;;2.33;1.00;;;;;;;20.02;51.15;101981.56;6061696;23;20388;-72
2022/07/27 07:41:11;;;;;;;4.55;1.20;;;;;;;20.31;51.21;101990.94;6048878;23;20015;-73
2022/07/27 07:43:43;;;;;;;6.10;1.10;;;;;;;20.38;49.82;101987.81;6015235;23;20037;-74
2022/07/27 07:47:12;;;;;;;;;;;;;;;;;;;;;
2022/07/27 07:53:47;;;;;;;4.40;1.02;;;;;;;20.47;50.15;101993.69;6215224;23;20047;-77
2022/07/27 08:00:37;;;;;;;;;;;;;;;;;;;;;
2022/07/27 08:03:57;;;;;;;;;;;;;;;;;;;;;
2022/07/27 08:10:55;;;;;;;4.43;1.10;;;;;;;20.39;48.83;101997.13;6117061;23;20033;-75
2022/07/27 08:14:08;;;;;;;3.95;1.00;;;;;;;20.32;47.82;102003.94;6028492;23;20335;-74
2022/07/27 08:20:52;;;;;;;4.65;1.08;;;;;;;20.29;48.46;102021.44;6127112;23;20092;-76
2022/07/27 08:24:08;;;;;;;4.63;1.52;;;;;;;20.00;48.57;102004.41;6209535;23;20009;-76
2022/07/27 08:27:41;;;;;;;3.13;0.95;;;;;;;20.04;48.86;102001.81;6161356;23;20316;-77
2022/07/27 08:34:17;;;;;;;;;;;;;;;;;;;;;
2022/07/27 08:41:10;;;;;;;2.88;1.23;;;;;;;20.17;47.66;101994.72;6137661;23;20024;-76
2022/07/27 08:47:40;;;;;;;;;;;;;;;;;;;;;
2022/07/27 08:50:37;;;;;;;;;;;;;;;;;;;;;
2022/07/27 08:53:40;;;;;;;3.10;0.93;;;;;;;20.77;46.66;101990.66;6146301;23;20427;-76
2022/07/27 08:57:02;;;;;;;3.78;1.00;;;;;;;20.91;46.39;101990.00;6217857;23;20396;-75
2022/07/27 09:03:29;;;;;;;3.83;1.10;;;;;;;20.89;46.06;102014.84;6149429;23;20020;-76
2022/07/27 09:06:46;;;;;;;1.92;0.82;;;;;;;20.79;45.75;102005.34;6220038;23;20102;-75
2022/07/27 09:13:51;;;;;;;3.38;1.15;;;;;;;20.66;45.52;102008.81;6211640;23;20008;-76
2022/07/27 09:16:39;;;;;;;4.45;1.17;;;;;;;20.59;44.35;102002.66;6241675;23;20016;-76
2022/07/27 09:19:49;;;;;;;2.45;1.10;;;;;;;20.56;43.68;101991.97;6238990;23;20328;-76
2022/07/27 09:23:06;;;;;;;;;;;;;;;;;;;;;
2022/07/27 09:33:48;;;;;;;2.08;0.68;;;;;;;20.78;44.56;102002.78;6115839;23;20024;-76
2022/07/27 09:36:54;;;;;;;4.75;1.20;;;;;;;20.74;45.27;102005.34;6201494;23;20019;-77
2022/07/27 09:43:15;;;;;;;4.63;1.23;;;;;;;20.76;45.19;102002.25;6211529;23;20009;-74
2022/07/27 09:50:07;;;;;;;7.03;1.27;;;;;;;20.70;45.92;102009.06;6186120;23;20043;-73
2022/07/27 09:56:43;;;;;;;4.95;1.23;;;;;;;20.56;46.63;101991.97;6122750;23;20010;-74
2022/07/27 10:00:08;;;;;;;;;;;;;;;;;;;;;
2022/07/27 10:03:33;;;;;;;2.85;0.90;;;;;;;20.58;46.87;102004.63;6118188;23;20105;-75
2022/07/27 10:13:38;;;;;;;5.30;1.20;;;;;;;20.79;47.17;102005.34;6037420;23;20104;-75
2022/07/27 10:20:08;;;;;;;;;;;;;;;;;;;;;
2022/07/27 10:26:36;;;;;;;6.03;1.50;;;;;;;21.06;46.99;102002.00;6203517;23;20009;-77
2022/07/27 10:29:44;;;;;;;5.20;1.42;;;;;;;21.26;46.93;102003.78;6223749;23;20026;-75
2022/07/27 10:33:16;;;;;;;3.05;1.23;;;;;;;21.30;46.92;101990.75;6191345;23;20411;-76
2022/07/27 10:36:06;;;;;;;5.13;1.50;;;;;;;21.36;46.45;101985.94;6236896;23;20741;-73
2022/07/27 10:39:29;;;;;;;3.20;0.95;;;;;;;21.53;46.12;101982.63;6232385;23;20060;-76
2022/07/27 10:56:35;;;;;;;6.78;2.03;;;;;;;21.22;45.10;101977.28;6073029;23;20057;-76
2022/07/27 10:59:36;;;;;;;3.25;1.08;;;;;;;21.13;45.07;101967.78;6111488;23;20033;-77
2022/07/27 11:02:50;;;;;;;5.90;1.05;;;;;;;21.20;44.96;101990.84;6097848;23;20022;-75
2022/07/27 11:06:11;;;;;;;5.55;1.27;;;;;;;20.94;45.43;101975.28;6118369;23;20064;-72
2022/07/27 11:19:55;;;;;;;6.20;2.65;;;;;;;21.07;46.61;101981.09;6221380;23;20017;-76
2022/07/27 11:23:22;;;;;;;;;;;;;;;;;;;;;
2022/07/27 11:29:47;;;;;;;16.50;6.20;;;;;;;21.20;46.53;101964.59;6116094;23;20088;-79
2022/07/27 11:36:07;;;;;;;8.77;3.05;;;;;;;21.24;45.65;101963.72;6115742;23;20022;-74
2022/07/27 11:39:18;;;;;;;;;;;;;;;21.35;46.22;101972.94;6118400;23;20009;-75
2022/07/27 11:42:18;;;;;;;;;;;;;;;;;;;;;
2022/07/27 11:45:43;;;;;;;;;;;;;;;;;;;;;
2022/07/27 11:49:27;;;;;;;;;;;;;;;;;;;;;
2022/07/27 12:09:09;;;;;;;3.25;1.30;;;;;;;21.60;43.16;101965.31;6179449;23;20333;-77
2022/07/27 12:19:03;;;;;;;5.47;0.90;;;;;;;21.72;40.89;101949.63;6179267;23;20005;-76
2022/07/27 12:22:13;;;;;;;2.25;1.27;;;;;;;21.77;40.76;101949.56;6145958;23;20005;-76
2022/07/27 12:29:55;;;;;;;2.35;1.25;;;;;;;22.11;40.88;101959.84;6180445;23;20024;-76
2022/07/27 12:33:27;;;;;;;2.55;0.98;;;;;;;22.04;39.82;101959.38;5907468;24;20025;-78
2022/07/27 12:50:17;;;;;;;2.72;0.95;;;;;;;21.75;37.31;101939.72;6021176;23;20017;-76
2022/07/27 12:53:17;;;;;;;2.00;0.80;;;;;;;21.74;37.84;101943.69;6069585;23;20007;-76
2022/07/27 12:56:49;;;;;;;;;;;;;;;;;;;;;
2022/07/27 13:03:03;;;;;;;;;;;;;;;;;;;;;
2022/07/27 13:06:28;;;;;;;1.55;0.93;;;;;;;22.10;37.97;101912.09;6062615;23;20085;-80
2022/07/27 13:17:12;;;;;;;3.65;0.90;;;;;;;22.35;37.49;101913.72;6213114;23;20016;-80
2022/07/27 13:20:11;;;;;;;3.08;1.00;;;;;;;22.46;36.28;101916.06;6119227;23;20021;-76
2022/07/27 13:23:15;;;;;;;5.28;1.30;;;;;;;22.51;35.94;101901.00;6113124;23;20005;-79
2022/07/27 13:26:49;;;;;;;3.25;0.90;;;;;;;22.62;36.96;101905.34;6200279;23;20008;-77
2022/07/27 13:34:00;;;;;;;;;;;;;;;;;;;;;
2022/07/27 13:47:40;;;;;;;2.58;1.00;;;;;;;22.22;32.50;101885.06;6089405;23;20018;-78
2022/07/27 13:50:49;;;;;;;1.00;0.80;;;;;;;22.38;35.62;101893.31;6140494;23;20044;-77
2022/07/27 14:01:03;;;;;;;5.53;3.50;;;;;;;22.16;35.98;101883.44;6213485;23;20004;-77
2022/07/27 14:07:19;;;;;;;;;;;;;;;;;;;;;
2022/07/27 14:13:43;;;;;;;2.40;1.02;;;;;;;21.97;36.68;101879.78;6164419;23;20067;-78
2022/07/27 14:17:02;;;;;;;;;;;;;;;;;;;;;
2022/07/27 14:19:54;;;;;;;4.65;1.48;;;;;;;21.89;35.85;101871.97;6121183;23;20097;-77
2022/07/27 14:26:38;;;;;;;2.38;1.20;;;;;;;21.99;36.99;101877.47;6188167;23;20004;-74
2022/07/27 14:37:14;;;;;;;;;;;;;;;;;;;;;
2022/07/27 14:47:00;;;;;;;3.20;1.10;;;;;;;22.32;35.27;101852.09;6184383;23;20008;-86
2022/07/27 14:49:45;;;;;;;3.95;1.13;;;;;;;22.31;35.31;101845.59;6245232;23;20004;-80
2022/07/27 15:06:26;;;;;;;2.85;0.98;;;;;;;22.49;35.19;101841.06;6051686;23;20006;-82
2022/07/27 15:10:07;;;;;;;;;;;;;;;;;;;;;
2022/07/27 15:13:13;;;;;;;2.58;0.90;;;;;;;22.65;34.81;101850.94;6197369;23;20083;-83
2022/07/27 15:15:53;;;;;;;;;;;;;;;;;;;;;
2022/07/27 15:22:29;;;;;;;2.05;0.80;;;;;;;22.83;36.43;101843.53;6250488;23;20077;-81
2022/07/27 15:25:30;;;;;;;2.13;0.80;;;;;;;22.81;36.54;101864.81;6249334;23;20111;-80
2022/07/27 15:36:45;;;;;;;4.80;1.17;;;;;;;22.57;38.22;101840.34;6004745;23;20479;-76
2022/07/27 15:43:34;;;;;;;6.22;1.33;;;;;;;22.62;39.68;101854.41;6005954;23;20018;-74
2022/07/27 15:46:36;;;;;;;;;;;;;;;;;;;;;
2022/07/27 15:53:21;;;;;;;;;;;;;;;;;;;;;
2022/07/27 15:56:38;;;;;;;4.88;1.20;;;;;;;22.49;41.19;101844.72;5863059;24;20084;-80
2022/07/27 16:03:29;;;;;;;2.15;1.10;;;;;;;22.41;39.81;101836.13;5940473;24;20021;-76
2022/07/27 16:09:56;;;;;;;;;;;;;;;;;;;;;
2022/07/27 16:12:59;;;;;;;1.80;1.30;;;;;;;22.41;39.64;101821.97;5938600;24;20095;-75
2022/07/27 16:22:03;;;;;;;5.78;2.10;;;;;;;22.54;40.50;101813.50;6062231;23;20066;-71
2022/07/27 16:25:19;;;;;;;4.07;1.10;;;;;;;22.45;39.94;101808.88;6063716;23;20439;-83
2022/07/27 16:28:26;;;;;;;2.60;1.10;;;;;;;22.41;39.68;101805.00;6134396;23;20031;-78
2022/07/27 16:31:47;;;;;;;4.18;1.60;;;;;;;22.44;39.84;101812.84;6185784;23;20021;-83
2022/07/27 16:34:48;;;;;;;4.10;1.10;;;;;;;22.34;38.83;101813.88;6160810;23;20396;-76
2022/07/27 16:38:06;;;;;;;4.05;1.20;;;;;;;22.30;39.47;101812.81;6230179;23;20022;-80
2022/07/27 16:41:17;;;;;;;5.50;1.20;;;;;;;22.35;39.55;101811.88;6244055;23;20142;-87
2022/07/27 16:44:43;;;;;;;3.92;1.05;;;;;;;22.28;38.88;101817.94;6204403;23;20015;-72
2022/07/27 16:51:45;;;;;;;2.65;0.88;;;;;;;22.35;39.80;101815.53;6092306;23;20459;-70
2022/07/27 17:01:44;;;;;;;3.05;0.90;;;;;;;22.28;39.22;101804.66;5975325;23;20021;-70
2022/07/27 17:04:56;;;;;;;3.80;1.00;;;;;;;22.19;38.92;101809.31;6233887;23;20011;-84
2022/07/27 17:08:11;;;;;;;;;;;;;;;;;;;;;
2022/07/27 17:15:11;;;;;;;3.50;1.00;;;;;;;22.15;39.28;101805.44;6158015;23;20044;-79
2022/07/27 17:18:28;;;;;;;2.90;1.00;;;;;;;22.25;39.38;101802.44;6147782;23;20019;-79
2022/07/27 17:25:01;;;;;;;2.25;0.90;;;;;;;22.21;39.26;101800.53;6051499;23;20059;-73
2022/07/27 17:28:13;;;;;;;2.47;1.08;;;;;;;22.21;39.20;101803.38;6188036;23;20047;-72
2022/07/27 17:31:46;;;;;;;5.82;1.40;;;;;;;22.20;39.77;101801.66;6237011;23;20004;-74
2022/07/27 17:38:06;;;;;;;;;;;;;;;;;;;;;
2022/07/27 17:48:50;;;;;;;;;;;;;;;;;;;;;
2022/07/27 17:56:09;;;;;;;;;;;;;;;;;;;;;
2022/07/27 18:10:11;;;;;;;3.58;1.20;;;;;;;21.92;40.32;101783.72;5891917;24;20071;-74
2022/07/27 18:17:13;;;;;;;;;;;;;;;;;;;;;
2022/07/27 18:20:50;;;;;;;;;;;;;;;;;;;;;
2022/07/27 18:24:38;;;;;;;;;;;;;;;;;;;;;
2022/07/27 18:31:18;;;;;;;;;;;;;;;;;;;;;
2022/07/27 18:41:32;;;;;;;3.40;0.90;;;;;;;21.79;40.17;101788.19;5989237;23;20055;-75
2022/07/27 18:52:06;;;;;;;2.65;0.90;;;;;;;21.77;40.49;101808.28;5939781;24;20142;-74
2022/07/27 19:32:08;;;;;;;5.40;1.42;;;;;;;21.02;43.20;101834.34;5886743;24;20017;-75
2022/07/27 19:47:00;;;;;;;;;;;;;;;;;;;;;
2022/07/27 19:54:26;;;;;;;;;;;;;;;;;;;;;
2022/07/27 20:48:52;;;;;;;;;;;;;;;;;;;;;
2022/07/27 20:56:13;;;;;;;;;;;;;;;;;;;;;
2022/07/27 21:10:36;;;;;;;2.90;1.30;;;;;;;19.84;46.46;101865.53;5746788;24;20094;-72
2022/07/27 21:14:00;;;;;;;;;;;;;;;;;;;;;
2022/07/27 21:25:07;;;;;;;;;;;;;;;;;;;;;